Terminal Aerodrome Forecast
Issued by NWS

Home | Current Version | Previous Version | Graphics & Text | Print | Product List | Glossary On
Versions: 1 2 3 4 5 6 7 8 9 10 11 12 13 14 15 16 17 18 19 20 21 22 23 24 25 26 27 28 29 30
000
FTUS43 KLOT 011122
TAFDPA
TAF
KDPA 011122Z 0112/0212 04006KT P6SM SCT025 BKN045
      TEMPO 0112/0116 BKN025
     FM012000 05010KT P6SM FEW030 BKN200
     FM020100 03005KT P6SM BKN120=

USA.gov is the U.S. government's official web portal to all federal, state and local government web resources and services.